createdAt,value
2023-06-04T05:38:43.373Z,100527.50
2023-06-04T05:41:47.423Z,100521.38
2023-06-04T05:44:51.182Z,100523.44
2023-06-04T05:47:56.112Z,100522.97
2023-06-04T05:50:59.268Z,100523.97
2023-06-04T05:54:02.839Z,100532.94
2023-06-04T05:57:06.792Z,100530.25
2023-06-04T06:00:11.730Z,100536.91
2023-06-04T06:03:17.783Z,100546.34
2023-06-04T06:06:22.113Z,100550.31
2023-06-04T06:09:25.217Z,100553.41
2023-06-04T06:12:28.448Z,100555.34
2023-06-04T06:15:34.336Z,100554.31
2023-06-04T06:18:37.546Z,100553.16
2023-06-04T06:21:40.413Z,100550.22
2023-06-04T06:24:43.645Z,100545.28
2023-06-04T06:27:46.440Z,100552.06
2023-06-04T06:30:50.804Z,100555.44
2023-06-04T06:33:53.550Z,100559.56
2023-06-04T06:36:56.722Z,100562.41
2023-06-04T06:39:59.431Z,100572.63
2023-06-04T06:43:02.423Z,100569.81
2023-06-04T06:46:05.098Z,100585.69
2023-06-04T06:49:08.310Z,100588.25
2023-06-04T06:52:11.145Z,100580.44
2023-06-04T06:55:14.155Z,100577.69
2023-06-04T06:58:17.011Z,100579.37
2023-06-04T07:01:20.151Z,100582.34
2023-06-04T07:04:23.440Z,100580.34
2023-06-04T07:07:26.547Z,100588.63
2023-06-04T07:10:30.449Z,100588.75
2023-06-04T07:13:36.211Z,100581.62
2023-06-04T07:16:39.075Z,100588.22
2023-06-04T07:19:42.086Z,100598.09
2023-06-04T07:22:44.766Z,100586.66
2023-06-04T07:25:47.828Z,100582.00
2023-06-04T07:28:50.845Z,100588.34
2023-06-04T07:31:53.971Z,100584.03
2023-06-04T07:34:56.740Z,100584.94
2023-06-04T07:37:59.757Z,100588.75
2023-06-04T07:41:02.410Z,100587.13
2023-06-04T07:44:05.519Z,100591.75
2023-06-04T07:47:08.904Z,100586.81
2023-06-04T07:50:12.195Z,100592.34
2023-06-04T07:53:14.932Z,100589.16
2023-06-04T07:56:20.349Z,100600.28
2023-06-04T07:59:24.315Z,100596.37
2023-06-04T08:02:28.026Z,100600.00
2023-06-04T08:05:32.815Z,100593.63
2023-06-04T08:08:36.652Z,100600.13
2023-06-04T08:11:42.134Z,100607.94
2023-06-04T08:14:44.941Z,100610.63
2023-06-04T08:17:48.108Z,100609.66
2023-06-04T08:20:51.987Z,100613.78
2023-06-04T08:23:58.236Z,100617.09
2023-06-04T08:27:01.303Z,100608.41
2023-06-04T08:30:06.263Z,100604.53
2023-06-04T08:33:11.971Z,100605.69
2023-06-04T08:36:17.238Z,100596.19
2023-06-04T08:39:20.267Z,100593.47
2023-06-04T08:42:39.584Z,100603.00
2023-06-04T08:45:52.106Z,100607.53
2023-06-04T08:48:59.713Z,100616.28
2023-06-04T08:52:04.283Z,100603.75
2023-06-04T08:55:13.213Z,100599.31
2023-06-04T08:58:16.844Z,100602.81
2023-06-04T09:01:20.190Z,100595.56
2023-06-04T09:04:23.834Z,100589.84
2023-06-04T09:07:27.470Z,100603.34
2023-06-04T09:10:32.841Z,100591.44
2023-06-04T09:13:37.218Z,100596.81
2023-06-04T09:16:50.647Z,100593.00
2023-06-04T09:19:53.709Z,100590.22
2023-06-04T09:22:56.519Z,100594.16
2023-06-04T09:26:08.869Z,100592.34
2023-06-04T09:29:11.768Z,100595.59
2023-06-04T09:32:14.874Z,100597.09
2023-06-04T09:35:19.757Z,100596.34
2023-06-04T09:38:23.412Z,100606.16
2023-06-04T09:41:27.455Z,100597.63
2023-06-04T09:44:31.450Z,100601.47
2023-06-04T09:47:47.899Z,100600.25
2023-06-04T09:50:51.064Z,100602.75
2023-06-04T09:54:04.576Z,100605.09
2023-06-04T09:57:18.972Z,100612.97
2023-06-04T10:00:24.078Z,100612.19
2023-06-04T10:14:58.454Z,100612.91
2023-06-04T10:18:04.469Z,100608.16
2023-06-04T10:21:09.308Z,100596.19
2023-06-04T10:24:15.370Z,100595.53
2023-06-04T10:27:19.258Z,100601.94
2023-06-04T10:30:22.393Z,100600.66
2023-06-04T10:33:25.682Z,100601.75
2023-06-04T10:36:30.016Z,100601.25
2023-06-04T10:39:33.931Z,100598.03
2023-06-04T10:42:44.238Z,100604.06
2023-06-04T10:45:47.246Z,100605.00
2023-06-04T10:48:55.004Z,100607.44
2023-06-04T10:51:58.469Z,100610.34
2023-06-04T10:55:06.074Z,100607.44
2023-06-04T10:58:09.286Z,100607.13
2023-06-04T11:01:13.497Z,100604.97
2023-06-04T11:04:24.683Z,100599.50
2023-06-04T11:07:28.624Z,100588.53
2023-06-04T11:10:36.949Z,100595.31
2023-06-04T11:13:40.214Z,100590.88
2023-06-04T11:16:43.146Z,100593.13
2023-06-04T11:19:46.304Z,100585.44
2023-06-04T11:23:00.972Z,100593.31
2023-06-04T11:26:04.214Z,100592.53
2023-06-04T11:29:13.105Z,100591.94
2023-06-04T11:32:26.082Z,100585.34
2023-06-04T11:35:29.078Z,100581.66
2023-06-04T11:38:32.199Z,100584.28
2023-06-04T11:41:36.617Z,100589.69
2023-06-04T11:44:39.997Z,100584.91
2023-06-04T11:47:46.991Z,100587.09
2023-06-04T11:50:50.238Z,100584.09
2023-06-04T11:53:53.563Z,100584.91
2023-06-04T11:56:57.037Z,100573.84
2023-06-04T12:00:00.073Z,100576.69
2023-06-04T12:03:04.438Z,100592.69
2023-06-04T12:06:17.201Z,100585.38
2023-06-04T12:09:24.696Z,100585.50
2023-06-04T12:12:27.687Z,100580.94
2023-06-04T12:15:30.616Z,100572.50
2023-06-04T12:18:34.128Z,100575.06
2023-06-04T12:21:38.069Z,100570.41
2023-06-04T12:24:54.502Z,100568.47
2023-06-04T12:27:57.647Z,100564.75
2023-06-04T12:31:00.927Z,100565.75
2023-06-04T12:34:03.761Z,100556.56
2023-06-04T12:37:07.665Z,100549.69
2023-06-04T12:40:11.086Z,100558.47
2023-06-04T12:43:14.276Z,100551.81
2023-06-04T12:46:17.138Z,100553.31
2023-06-04T12:49:20.514Z,100543.28
2023-06-04T12:52:23.371Z,100549.34
2023-06-04T12:55:28.305Z,100543.72
2023-06-04T12:58:31.459Z,100546.72
2023-06-04T13:01:34.688Z,100546.56
2023-06-04T13:04:37.502Z,100543.50
2023-06-04T13:07:41.418Z,100542.66
2023-06-04T13:10:44.161Z,100544.12
2023-06-04T13:13:47.352Z,100533.81
2023-06-04T13:16:52.709Z,100538.25
2023-06-04T13:19:57.126Z,100537.56
2023-06-04T13:22:59.858Z,100536.03
2023-06-04T13:26:02.928Z,100531.63
2023-06-04T13:29:06.064Z,100531.50
2023-06-04T13:32:09.153Z,100528.59
2023-06-04T13:35:11.883Z,100531.25
2023-06-04T13:38:14.934Z,100511.44
2023-06-04T13:41:17.751Z,100519.78
2023-06-04T13:44:27.362Z,100526.50
2023-06-04T13:47:30.315Z,100516.00
2023-06-04T13:50:34.441Z,100510.34
2023-06-04T13:53:37.198Z,100507.03
2023-06-04T13:56:40.652Z,100504.16
2023-06-04T13:59:43.390Z,100510.16
2023-06-04T14:02:46.559Z,100501.81
2023-06-04T14:05:49.802Z,100511.81
2023-06-04T14:08:52.527Z,100514.81
2023-06-04T14:11:56.817Z,100511.91
2023-06-04T14:14:59.808Z,100512.41
2023-06-04T14:18:03.242Z,100503.81
2023-06-04T14:21:06.295Z,100500.03
2023-06-04T14:24:09.939Z,100500.06
2023-06-04T15:47:01.016Z,100426.34
2023-06-04T15:50:04.845Z,100422.63
2023-06-04T15:53:07.612Z,100412.88
2023-06-04T15:56:10.808Z,100414.41
2023-06-04T15:59:13.549Z,100419.84
2023-06-04T16:02:16.587Z,100414.84
2023-06-04T16:05:19.913Z,100409.97
2023-06-04T16:08:22.614Z,100418.88
2023-06-04T16:11:26.919Z,100412.25
2023-06-04T16:14:29.692Z,100421.34
2023-06-04T16:17:33.086Z,100412.88
2023-06-04T16:20:35.911Z,100420.69
2023-06-04T16:23:38.976Z,100419.75
2023-06-04T16:26:41.797Z,100419.75
2023-06-04T16:29:44.819Z,100419.59
2023-06-04T16:32:47.841Z,100421.28
2023-06-04T16:35:50.918Z,100422.97
2023-06-04T16:38:54.355Z,100420.03
2023-06-04T16:42:01.923Z,100410.44
2023-06-04T16:45:05.096Z,100411.47
2023-06-04T16:48:08.358Z,100408.09
2023-06-04T16:51:11.963Z,100410.00
2023-06-04T16:54:15.125Z,100421.50
2023-06-04T16:57:18.767Z,100414.31
2023-06-04T17:00:26.684Z,100413.41
2023-06-04T17:03:30.236Z,100408.16
2023-06-04T17:06:33.238Z,100414.31
2023-06-04T17:09:36.039Z,100419.91
2023-06-04T17:12:39.396Z,100418.12
2023-06-04T17:15:42.180Z,100409.66
2023-06-04T17:18:45.437Z,100411.72
2023-06-04T17:21:48.458Z,100415.97
2023-06-04T17:24:51.892Z,100428.72
2023-06-04T17:27:55.278Z,100417.53
2023-06-04T17:30:58.525Z,100425.91
2023-06-04T17:34:01.496Z,100427.84
2023-06-04T17:37:04.998Z,100440.56
2023-06-04T17:40:08.338Z,100431.78
2023-06-04T17:43:11.679Z,100431.97
2023-06-04T17:46:14.684Z,100435.12
2023-06-04T17:49:18.176Z,100443.56
2023-06-04T17:52:21.336Z,100436.22
2023-06-04T17:55:27.442Z,100433.09
2023-06-04T17:58:31.347Z,100436.81
2023-06-04T18:01:37.991Z,100436.75
2023-06-04T18:04:41.478Z,100435.22
2023-06-04T18:07:46.516Z,100442.31
2023-06-04T18:10:50.014Z,100447.25
2023-06-04T18:13:53.244Z,100451.09
2023-06-04T18:16:56.706Z,100451.56
2023-06-04T18:20:00.324Z,100458.44
2023-06-04T18:23:05.721Z,100456.94
2023-06-04T18:26:09.139Z,100468.00
2023-06-04T18:29:12.938Z,100452.97
2023-06-04T18:32:17.043Z,100455.69
2023-06-04T18:35:20.641Z,100456.47
2023-06-04T18:38:23.946Z,100461.63
2023-06-04T18:41:27.497Z,100460.22
2023-06-04T18:44:30.734Z,100461.88
2023-06-04T19:50:28.051Z,100488.53
2023-06-04T19:53:31.714Z,100493.59
2023-06-04T19:56:34.947Z,100486.31
2023-06-04T19:59:44.197Z,100493.09
2023-06-04T20:02:47.608Z,100492.81
2023-06-04T20:05:51.196Z,100489.78
2023-06-04T20:08:54.030Z,100486.75
2023-06-04T20:11:57.202Z,100485.47
2023-06-04T20:15:00.126Z,100489.09
2023-06-04T20:18:03.472Z,100487.41
2023-06-04T20:21:06.520Z,100495.94
2023-06-04T20:24:09.913Z,100498.91
2023-06-04T20:27:14.115Z,100495.97
2023-06-04T20:30:17.349Z,100489.91
2023-06-04T20:33:20.120Z,100492.97
2023-06-04T20:36:26.573Z,100491.06
2023-06-04T20:39:38.437Z,100483.97
2023-06-04T20:42:42.166Z,100498.13
2023-06-04T20:45:45.060Z,100489.59
2023-06-04T20:48:48.320Z,100489.19
2023-06-04T20:51:51.069Z,100488.63
2023-06-04T20:54:54.220Z,100485.34
2023-06-04T20:57:57.372Z,100481.47
2023-06-04T21:01:00.532Z,100481.00
2023-06-04T21:04:04.416Z,100482.38
2023-06-04T21:07:07.835Z,100480.16
2023-06-04T21:10:10.946Z,100480.41
2023-06-04T21:13:14.355Z,100478.22
2023-06-04T21:16:17.228Z,100476.66
2023-06-04T21:19:20.420Z,100483.44
2023-06-04T21:22:23.232Z,100478.72
2023-06-04T21:25:26.228Z,100485.66
2023-06-04T21:28:28.920Z,100485.53
2023-06-04T21:31:31.978Z,100482.03
2023-06-04T21:34:34.802Z,100489.75
2023-06-04T21:37:37.875Z,100488.84
2023-06-04T21:40:40.676Z,100495.25
2023-06-04T21:43:44.247Z,100491.34
2023-06-04T21:46:47.229Z,100498.37
2023-06-04T21:49:50.518Z,100500.53
2023-06-04T21:52:53.297Z,100510.31
2023-06-04T21:55:58.002Z,100499.28
2023-06-04T21:59:00.755Z,100507.63
2023-06-04T22:02:04.438Z,100507.87
2023-06-04T22:05:07.908Z,100505.75
2023-06-04T22:08:10.690Z,100504.56
2023-06-04T22:11:13.916Z,100504.91
2023-06-04T22:14:16.681Z,100506.66
2023-06-04T22:17:19.916Z,100505.53
2023-06-04T22:20:22.663Z,100513.19
2023-06-04T22:23:25.871Z,100511.41
2023-06-04T22:26:37.327Z,100511.28
2023-06-04T22:29:42.099Z,100522.13
2023-06-04T22:32:45.044Z,100518.47
2023-06-04T22:35:48.405Z,100516.06
2023-06-04T22:38:51.471Z,100512.88
2023-06-04T22:41:54.563Z,100505.94
2023-06-04T22:44:57.313Z,100506.53
2023-06-04T22:48:00.669Z,100498.88
